Time;durP1;ratioP1;P1;durP2;ratioP2;P2;SDS_P1;SDS_P2;PMS_P1;PMS_P2;Temp;Humidity;BMP_temperature;BMP_pressure;BME280_temperature;BME280_humidity;BME280_pressure;Samples;Min_cycle;Max_cycle;Signal;HPM_P1;HPM_P2
2022/11/22 00:00:21;;;;;;;15.03;7.50;;;;;;;15.16;53.98;99071.72;5082308;28;20056;-69
2022/11/22 00:02:47;;;;;;;21.27;8.57;;;;;;;15.02;53.27;99065.44;5048280;28;20136;-69
2022/11/22 00:05:13;;;;;;;11.40;7.23;;;;;;;14.36;55.56;99071.69;5049244;28;20112;-69
2022/11/22 00:07:38;;;;;;;13.73;7.83;;;;;;;14.56;55.00;99063.56;5047774;28;20068;-69
2022/11/22 00:10:05;;;;;;;16.50;7.83;;;;;;;14.93;54.14;99060.69;5049599;28;20025;-69
2022/11/22 00:12:31;;;;;;;17.67;7.43;;;;;;;15.12;53.26;99049.16;5055609;28;20062;-69
2022/11/22 00:14:56;;;;;;;14.40;6.87;;;;;;;15.31;52.33;99049.78;5056768;28;20037;-69
2022/11/22 00:17:21;;;;;;;14.07;7.73;;;;;;;15.06;53.28;99055.59;5053849;28;20478;-69
2022/11/22 00:19:47;;;;;;;17.87;7.83;;;;;;;15.56;50.78;99061.50;5054518;28;20055;-69
2022/11/22 00:22:12;;;;;;;18.53;7.40;;;;;;;15.27;51.89;99058.78;5055734;28;20028;-69
2022/11/22 00:24:37;;;;;;;13.60;7.27;;;;;;;15.36;51.14;99065.28;5055883;28;20135;-69
2022/11/22 00:27:03;;;;;;;18.83;7.63;;;;;;;15.64;51.02;99067.16;5055035;28;20013;-69
2022/11/22 00:29:28;;;;;;;14.73;6.53;;;;;;;14.70;54.64;99070.72;5055965;28;20027;-69
2022/11/22 00:31:53;;;;;;;14.87;7.73;;;;;;;14.76;53.27;99074.81;5054135;28;20028;-69
2022/11/22 00:34:19;;;;;;;18.83;7.67;;;;;;;14.64;53.69;99076.31;5053405;28;20035;-69
2022/11/22 00:36:44;;;;;;;19.93;7.27;;;;;;;15.35;52.03;99067.09;5056122;28;20108;-69
2022/11/22 00:39:09;;;;;;;19.83;8.17;;;;;;;14.93;53.30;99071.22;5057251;28;20474;-69
2022/11/22 00:41:35;;;;;;;13.73;6.83;;;;;;;15.55;51.65;99068.56;5053641;28;21184;-69
2022/11/22 00:44:01;;;;;;;18.30;7.17;;;;;;;14.97;52.52;99067.47;5054921;28;20028;-69
2022/11/22 00:46:26;;;;;;;15.60;6.50;;;;;;;15.34;51.23;99068.00;5055112;28;20106;-69
2022/11/22 00:48:51;;;;;;;15.93;7.10;;;;;;;14.79;52.84;99068.53;5056525;28;20021;-69
2022/11/22 00:51:17;;;;;;;15.43;7.13;;;;;;;14.37;56.83;99079.47;5054942;28;20025;-69
2022/11/22 00:53:42;;;;;;;18.27;6.17;;;;;;;14.58;54.95;99072.22;5054148;28;20025;-69
2022/11/22 00:56:08;;;;;;;15.03;5.80;;;;;;;14.17;56.35;99087.56;5054710;28;20104;-69
2022/11/22 00:58:33;;;;;;;15.00;7.30;;;;;;;15.27;53.58;99085.94;5055706;28;20430;-69
2022/11/22 01:00:58;;;;;;;13.43;6.13;;;;;;;15.57;52.99;99077.22;5055971;28;20116;-69
2022/11/22 01:03:24;;;;;;;14.60;5.87;;;;;;;15.21;53.29;99074.94;5054999;28;20115;-69
2022/11/22 01:05:49;;;;;;;22.53;6.93;;;;;;;14.49;54.61;99077.13;5088274;28;20474;-69
2022/11/22 01:08:14;;;;;;;17.37;5.23;;;;;;;14.32;55.84;99065.72;5054888;28;20025;-69
2022/11/22 01:10:41;;;;;;;16.60;5.90;;;;;;;15.24;52.95;99057.16;5054819;28;20561;-69
2022/11/22 01:13:06;;;;;;;20.70;5.67;;;;;;;15.23;52.31;99063.38;5055734;28;20072;-69
2022/11/22 01:15:32;;;;;;;17.17;5.63;;;;;;;14.85;53.54;99070.81;5053958;28;20475;-69
2022/11/22 01:17:57;;;;;;;15.87;5.67;;;;;;;14.16;54.37;99075.38;5056227;28;20520;-69
2022/11/22 01:20:23;;;;;;;15.47;5.37;;;;;;;14.60;53.10;99061.59;5055057;28;20032;-69
2022/11/22 01:22:48;;;;;;;14.50;4.87;;;;;;;14.54;54.18;99077.72;5052293;28;20080;-69
2022/11/22 01:25:13;;;;;;;14.03;5.20;;;;;;;14.88;52.52;99063.59;5050821;28;20565;-69
2022/11/22 01:27:39;;;;;;;14.87;5.17;;;;;;;13.54;55.59;99081.97;5051541;28;20017;-69
2022/11/22 01:30:05;;;;;;;9.60;5.10;;;;;;;14.21;54.79;99078.59;5051812;28;20475;-69
2022/11/22 01:32:30;;;;;;;13.60;5.20;;;;;;;13.85;55.43;99076.97;5051785;28;20494;-69
2022/11/22 01:34:56;;;;;;;17.30;5.27;;;;;;;14.49;53.23;99074.50;5051717;28;20111;-69
2022/11/22 01:37:21;;;;;;;12.03;5.33;;;;;;;14.17;54.05;99080.53;5050176;28;20053;-69
2022/11/22 01:39:46;;;;;;;13.57;5.40;;;;;;;14.43;54.09;99068.63;5051925;28;20109;-69
2022/11/22 01:42:12;;;;;;;13.73;5.37;;;;;;;14.40;53.76;99068.81;5050413;28;20421;-69
2022/11/22 01:44:39;;;;;;;17.70;4.97;;;;;;;14.15;53.73;99065.78;5050534;28;20128;-69
2022/11/22 01:47:13;;;;;;;15.53;5.20;;;;;;;14.25;53.64;99074.88;5050670;28;20027;-69
2022/11/22 01:49:48;;;;;;;19.03;5.50;;;;;;;13.36;56.62;99073.25;5052294;28;20438;-69
2022/11/22 01:52:18;;;;;;;23.80;5.57;;;;;;;13.82;54.74;99072.72;5050784;28;20059;-69
2022/11/22 01:54:49;;;;;;;20.13;5.17;;;;;;;13.96;54.87;99064.13;5050256;28;20028;-69
2022/11/22 01:57:19;;;;;;;19.03;5.20;;;;;;;14.34;52.42;99073.53;5050001;28;20502;-69
2022/11/22 01:59:54;;;;;;;16.37;4.80;;;;;;;13.63;54.44;99078.06;5084571;28;20032;-69
2022/11/22 02:02:20;;;;;;;17.13;5.73;;;;;;;13.54;54.65;99089.03;5052801;28;20069;-69
2022/11/22 02:04:47;;;;;;;21.37;6.40;;;;;;;13.85;55.15;99088.31;5051150;28;20048;-69
2022/11/22 02:07:21;;;;;;;24.43;5.10;;;;;;;13.85;55.19;99095.34;5050740;28;20040;-69
2022/11/22 02:09:50;;;;;;;17.07;4.73;;;;;;;13.47;55.94;99091.09;5051345;28;20039;-69
2022/11/22 02:12:17;;;;;;;16.73;4.37;;;;;;;13.36;56.33;99086.38;5050526;28;20394;-69
2022/11/22 02:14:43;;;;;;;15.80;4.70;;;;;;;14.14;53.13;99091.22;5050192;28;20082;-69
2022/11/22 02:17:08;;;;;;;24.30;5.20;;;;;;;13.64;54.11;99090.28;5051950;28;20028;-69
2022/11/22 02:19:47;;;;;;;12.53;4.27;;;;;;;13.77;54.25;99090.47;5050634;28;20029;-70
2022/11/22 02:22:43;;;;;;;24.93;4.63;;;;;;;13.74;53.84;99086.25;5031132;28;20039;-69
2022/11/22 02:25:32;;;;;;;20.87;4.53;;;;;;;13.73;53.39;99086.31;5040790;28;20033;-69
2022/11/22 02:27:57;;;;;;;19.60;3.40;;;;;;;13.94;52.64;99081.72;5048087;28;20123;-69
2022/11/22 02:30:23;;;;;;;14.57;3.57;;;;;;;13.63;54.13;99093.81;5050986;28;20043;-69
2022/11/22 02:32:48;;;;;;;18.00;3.57;;;;;;;13.24;54.59;99098.31;5084646;28;20025;-70
2022/11/22 02:35:18;;;;;;;20.60;3.63;;;;;;;13.39;55.68;99094.13;5083462;28;20496;-69
2022/11/22 02:37:44;;;;;;;17.40;3.13;;;;;;;13.36;55.85;99106.53;5048435;28;20071;-69
2022/11/22 02:40:13;;;;;;;17.50;3.10;;;;;;;13.32;55.54;99120.69;5050382;28;20028;-69
2022/11/22 02:42:43;;;;;;;14.57;2.47;;;;;;;13.44;54.17;99114.03;5050300;28;20116;-69
2022/11/22 02:45:09;;;;;;;22.03;3.13;;;;;;;13.65;52.71;99115.56;5051042;28;20070;-69
2022/11/22 02:47:34;;;;;;;11.77;3.30;;;;;;;12.96;55.05;99117.13;5049562;28;20108;-69
2022/11/22 02:50:00;;;;;;;18.83;4.30;;;;;;;13.94;53.64;99115.88;5049867;28;20486;-69
2022/11/22 02:52:25;;;;;;;22.37;3.30;;;;;;;12.69;56.18;99117.50;5050349;28;20025;-69
2022/11/22 02:54:50;;;;;;;17.37;2.70;;;;;;;13.19;56.10;99120.44;5049728;28;20068;-69
2022/11/22 02:57:16;;;;;;;22.67;3.83;;;;;;;13.01;55.43;99122.13;5082449;28;20021;-70
2022/11/22 02:59:41;;;;;;;25.57;3.10;;;;;;;12.80;56.46;99130.09;5049045;28;20029;-69
2022/11/22 03:02:07;;;;;;;20.77;3.20;;;;;;;13.09;55.29;99129.66;5051076;28;20471;-69
2022/11/22 03:04:32;;;;;;;11.97;2.63;;;;;;;12.86;55.85;99134.22;5049607;28;20357;-69
2022/11/22 03:06:58;;;;;;;24.30;5.20;;;;;;;13.34;53.93;99140.69;5048897;28;20025;-69
2022/11/22 03:09:25;;;;;;;21.23;2.87;;;;;;;13.74;52.99;99133.50;5050263;28;20105;-69
2022/11/22 03:11:52;;;;;;;16.07;2.57;;;;;;;13.32;53.42;99132.03;5049562;28;20082;-69
2022/11/22 03:14:17;;;;;;;17.13;3.20;;;;;;;12.29;56.77;99140.25;5049806;28;20040;-69
2022/11/22 03:16:44;;;;;;;21.63;3.87;;;;;;;12.89;54.79;99139.31;5049286;28;20021;-69
2022/11/22 03:19:10;;;;;;;19.57;2.87;;;;;;;13.16;54.17;99134.56;5048904;28;20029;-69
2022/11/22 03:21:37;;;;;;;15.77;2.80;;;;;;;12.77;54.47;99145.13;5050072;28;20029;-69
2022/11/22 03:24:02;;;;;;;9.93;2.13;;;;;;;12.90;54.07;99135.78;5049398;28;20112;-69
2022/11/22 03:26:28;;;;;;;18.47;2.53;;;;;;;12.61;55.37;99134.47;5049975;28;20048;-69
2022/11/22 03:28:53;;;;;;;28.03;3.93;;;;;;;12.83;55.13;99134.34;5049261;28;20021;-69
2022/11/22 03:31:18;;;;;;;13.67;2.57;;;;;;;12.71;55.99;99139.25;5045787;28;20029;-69
2022/11/22 03:33:44;;;;;;;18.17;3.60;;;;;;;12.46;55.54;99136.03;5081242;28;20025;-69
2022/11/22 03:36:09;;;;;;;16.77;2.63;;;;;;;11.62;57.75;99134.34;5082672;28;20028;-69
2022/11/22 03:38:35;;;;;;;12.10;2.13;;;;;;;11.34;59.06;99132.81;5048478;28;20032;-69
2022/11/22 03:41:00;;;;;;;13.53;2.30;;;;;;;12.92;55.10;99133.94;5048388;28;20025;-70
2022/11/22 03:43:26;;;;;;;19.47;2.57;;;;;;;13.33;53.05;99144.22;5050240;28;20057;-69
2022/11/22 03:45:52;;;;;;;21.37;3.10;;;;;;;12.50;55.86;99138.44;5048497;28;20025;-69
2022/11/22 03:48:17;;;;;;;22.10;3.60;;;;;;;12.93;54.30;99135.63;5049221;28;20036;-69
2022/11/22 03:50:43;;;;;;;14.20;2.57;;;;;;;13.04;54.25;99129.88;5063775;28;20052;-69
2022/11/22 03:53:08;;;;;;;19.20;2.80;;;;;;;12.35;55.37;99145.22;5081817;28;20025;-70
2022/11/22 03:55:34;;;;;;;13.67;2.47;;;;;;;12.86;53.20;99145.56;5049186;28;20044;-69
2022/11/22 03:57:59;;;;;;;18.90;3.00;;;;;;;12.31;53.80;99148.91;5048953;28;20501;-70
2022/11/22 04:00:25;;;;;;;12.47;2.20;;;;;;;12.33;54.42;99147.03;5047549;28;20077;-69
2022/11/22 04:02:50;;;;;;;18.87;2.80;;;;;;;12.32;54.95;99150.59;5048289;28;20466;-70
2022/11/22 04:05:16;;;;;;;13.97;2.30;;;;;;;12.59;54.56;99146.81;5047044;28;20115;-69
2022/11/22 04:07:41;;;;;;;23.07;3.23;;;;;;;12.66;53.43;99154.31;5049586;28;20025;-69
2022/11/22 04:10:07;;;;;;;10.53;2.67;;;;;;;12.45;55.16;99165.78;5048369;28;20025;-69
2022/11/22 04:12:33;;;;;;;24.90;3.57;;;;;;;11.62;58.32;99173.59;5031512;28;20017;-69
2022/11/22 04:15:07;;;;;;;13.17;2.77;;;;;;;11.80;57.81;99169.38;5047988;28;20371;-69
2022/11/22 04:17:46;;;;;;;11.87;2.10;;;;;;;11.65;57.40;99163.00;5050003;28;20194;-69
2022/11/22 04:23:00;;;;;;;14.07;2.53;;;;;;;11.68;57.88;99164.63;5048604;28;20410;-69
2022/11/22 04:25:27;;;;;;;13.07;2.17;;;;;;;11.79;57.78;99161.56;5048716;28;20029;-70
2022/11/22 04:27:53;;;;;;;16.07;2.00;;;;;;;11.76;57.14;99166.91;5048571;28;20117;-69
2022/11/22 04:30:19;;;;;;;16.47;2.47;;;;;;;11.28;59.02;99167.09;5048742;28;20111;-69
2022/11/22 04:32:44;;;;;;;16.63;3.10;;;;;;;11.61;59.12;99166.66;5046562;28;20024;-69
2022/11/22 04:35:11;;;;;;;11.50;2.27;;;;;;;11.99;57.40;99166.88;5047162;28;20482;-69
2022/11/22 04:37:36;;;;;;;16.27;4.13;;;;;;;11.44;60.50;99174.31;5048409;28;20458;-69
2022/11/22 04:40:03;;;;;;;24.57;3.20;;;;;;;11.71;57.41;99170.56;5050073;28;20064;-69
2022/11/22 04:45:12;;;;;;;14.77;2.20;;;;;;;12.18;55.60;99179.16;5048880;28;20128;-70
2022/11/22 04:53:05;;;;;;;20.10;2.80;;;;;;;11.85;57.54;99188.31;5048798;28;20044;-69
2022/11/22 04:55:31;;;;;;;19.67;3.77;;;;;;;11.64;57.74;99194.47;5049285;28;20032;-70
2022/11/22 04:57:56;;;;;;;16.40;3.30;;;;;;;11.44;58.64;99188.25;5048581;28;20114;-70
2022/11/22 05:00:21;;;;;;;10.43;2.77;;;;;;;11.31;59.67;99182.66;5052229;28;20053;-70
2022/11/22 05:02:47;;;;;;;12.37;2.37;;;;;;;11.93;56.95;99185.41;5050763;28;20036;-69
2022/11/22 05:05:12;;;;;;;15.17;3.63;;;;;;;11.58;57.54;99190.34;5052677;28;20033;-70
2022/11/22 05:07:37;;;;;;;22.30;3.33;;;;;;;11.32;60.54;99194.81;5084487;28;20032;-69
2022/11/22 05:10:03;;;;;;;18.37;3.23;;;;;;;11.57;59.57;99188.63;5053101;28;20075;-70
2022/11/22 05:12:28;;;;;;;16.10;3.53;;;;;;;12.08;58.01;99198.81;5051302;28;20053;-70
2022/11/22 05:14:54;;;;;;;21.30;3.90;;;;;;;12.03;56.31;99197.25;5051374;28;20031;-69
2022/11/22 05:17:19;;;;;;;14.60;3.07;;;;;;;12.45;55.50;99192.00;5048874;28;20025;-70
2022/11/22 05:19:44;;;;;;;17.87;3.50;;;;;;;12.12;58.63;99203.00;5053949;28;20028;-69
2022/11/22 05:22:10;;;;;;;15.17;3.87;;;;;;;12.59;55.51;99194.84;5053562;28;20027;-69
2022/11/22 05:24:35;;;;;;;14.70;3.83;;;;;;;12.14;57.31;99198.53;5050609;28;20474;-70
2022/11/22 05:27:00;;;;;;;16.73;3.10;;;;;;;12.80;56.08;99197.41;5050667;28;20120;-70
2022/11/22 05:29:26;;;;;;;13.60;3.73;;;;;;;12.84;56.65;99193.75;5082496;28;20071;-70
2022/11/22 05:31:51;;;;;;;15.80;4.53;;;;;;;12.44;55.79;99200.75;5052221;28;20115;-69
2022/11/22 05:34:16;;;;;;;19.23;6.13;;;;;;;13.30;54.23;99207.34;5053700;28;20069;-69
2022/11/22 05:36:42;;;;;;;14.27;4.00;;;;;;;12.04;56.58;99209.41;5050736;28;20478;-70
2022/11/22 05:39:07;;;;;;;17.73;4.30;;;;;;;12.84;55.23;99204.22;5051149;28;20087;-69
2022/11/22 05:41:33;;;;;;;10.67;3.90;;;;;;;13.27;53.55;99199.63;5050662;28;20021;-70
2022/11/22 05:43:59;;;;;;;20.67;4.13;;;;;;;12.33;56.22;99203.84;5050887;28;20032;-69
2022/11/22 05:46:29;;;;;;;16.33;4.27;;;;;;;13.32;54.04;99188.91;5050767;28;20025;-69
2022/11/22 05:48:56;;;;;;;15.03;4.37;;;;;;;11.99;56.15;99200.03;5051036;28;20036;-70
2022/11/22 05:51:30;;;;;;;16.47;4.07;;;;;;;12.54;56.30;99194.19;5051104;28;20111;-69
2022/11/22 05:53:56;;;;;;;12.77;4.20;;;;;;;12.51;56.35;99204.81;5050809;28;20047;-69
2022/11/22 05:56:23;;;;;;;13.53;4.43;;;;;;;12.47;56.44;99200.63;5051422;28;20037;-69
2022/11/22 05:58:49;;;;;;;13.57;4.27;;;;;;;12.25;57.03;99195.47;5050100;28;20486;-69
2022/11/22 06:01:20;;;;;;;21.37;4.57;;;;;;;12.46;56.04;99188.44;5049909;28;20090;-69
2022/11/22 06:03:45;;;;;;;10.73;4.27;;;;;;;12.69;55.42;99185.66;5051208;28;20111;-69
2022/11/22 06:06:12;;;;;;;21.40;5.00;;;;;;;12.68;55.89;99183.09;5050202;28;20037;-69
2022/11/22 06:08:39;;;;;;;16.87;4.40;;;;;;;13.06;53.86;99183.97;5049912;28;20029;-70
2022/11/22 06:11:07;;;;;;;15.37;4.40;;;;;;;13.24;52.79;99194.50;5051616;28;20016;-69
2022/11/22 06:13:34;;;;;;;13.03;4.23;;;;;;;12.54;55.05;99189.81;5052048;28;20043;-70
2022/11/22 06:16:00;;;;;;;9.53;4.27;;;;;;;12.38;56.61;99187.00;5051506;28;20024;-69
2022/11/22 06:18:26;;;;;;;15.87;5.17;;;;;;;12.63;56.37;99183.31;5051835;28;20025;-69
2022/11/22 06:20:51;;;;;;;19.27;4.53;;;;;;;13.22;53.75;99184.09;5049900;28;20025;-69
2022/11/22 06:23:16;;;;;;;8.93;4.10;;;;;;;12.98;54.20;99186.09;5051012;28;20036;-69
2022/11/22 06:25:42;;;;;;;18.07;5.10;;;;;;;13.76;52.06;99182.47;5051852;28;20039;-69
2022/11/22 06:28:07;;;;;;;14.63;4.97;;;;;;;12.95;53.42;99182.75;5050974;28;20115;-69
2022/11/22 06:30:32;;;;;;;13.77;5.13;;;;;;;13.46;52.09;99186.50;5050444;28;20025;-69
2022/11/22 06:32:57;;;;;;;15.07;4.83;;;;;;;13.74;51.39;99172.88;5049996;28;20033;-69
2022/11/22 06:35:23;;;;;;;12.00;4.60;;;;;;;13.05;53.03;99166.53;5050051;28;20033;-69
2022/11/22 06:37:49;;;;;;;10.47;4.57;;;;;;;12.31;54.97;99169.84;5050221;28;20021;-69
2022/11/22 06:40:16;;;;;;;14.43;5.33;;;;;;;12.49;54.31;99177.84;5051344;28;20029;-69
2022/11/22 06:42:41;;;;;;;12.47;5.70;;;;;;;12.50;54.92;99174.28;5082183;28;20029;-69
2022/11/22 06:45:07;;;;;;;18.43;5.07;;;;;;;12.75;54.27;99178.41;5051089;28;20379;-69
2022/11/22 06:47:32;;;;;;;16.40;5.50;;;;;;;13.21;52.18;99176.28;5049990;28;20021;-69
2022/11/22 06:49:58;;;;;;;12.43;4.70;;;;;;;14.18;50.09;99176.00;5050567;28;20021;-69
2022/11/22 06:52:23;;;;;;;12.70;5.13;;;;;;;13.44;51.21;99177.03;5051724;28;20033;-69
2022/11/22 06:54:48;;;;;;;14.13;5.23;;;;;;;13.94;50.67;99181.53;5049881;28;20135;-69
2022/11/22 06:57:14;;;;;;;15.07;5.23;;;;;;;14.00;50.42;99183.88;5051019;28;20090;-69
2022/11/22 06:59:39;;;;;;;11.87;4.43;;;;;;;13.87;50.23;99178.38;5049865;28;20112;-69
2022/11/22 07:02:05;;;;;;;12.70;5.53;;;;;;;14.06;50.02;99180.91;5049519;28;20216;-69
2022/11/22 07:04:30;;;;;;;16.27;4.70;;;;;;;12.95;52.09;99188.84;5049843;28;20437;-69
2022/11/22 07:06:56;;;;;;;15.67;5.47;;;;;;;13.80;50.39;99187.47;5082724;28;20033;-69
2022/11/22 07:09:21;;;;;;;14.03;4.17;;;;;;;14.02;49.49;99184.63;5049402;28;20035;-69
2022/11/22 07:11:46;;;;;;;9.77;3.50;;;;;;;13.69;50.22;99182.75;5049649;28;20478;-69
2022/11/22 07:14:12;;;;;;;10.77;3.87;;;;;;;13.73;50.37;99188.72;5049877;28;20394;-69
2022/11/22 07:16:38;;;;;;;12.13;3.83;;;;;;;13.66;51.29;99193.41;5048200;28;20025;-69
2022/11/22 07:19:04;;;;;;;10.43;4.27;;;;;;;12.56;54.72;99180.09;5089616;28;20025;-69
2022/11/22 07:21:31;;;;;;;18.27;4.70;;;;;;;12.43;54.34;99188.56;5051868;28;20024;-69
2022/11/22 07:23:56;;;;;;;15.10;4.60;;;;;;;11.36;57.82;99183.34;5045984;28;20086;-69
2022/11/22 07:26:24;;;;;;;13.63;4.53;;;;;;;12.28;56.65;99190.09;5055341;28;20020;-69
2022/11/22 07:28:50;;;;;;;15.33;6.83;;;;;;;12.62;53.81;99189.44;5049832;28;20029;-69
2022/11/22 07:31:16;;;;;;;17.10;4.80;;;;;;;12.16;55.97;99191.47;5051237;28;20394;-69
2022/11/22 07:33:43;;;;;;;11.17;5.40;;;;;;;11.86;56.94;99191.81;5049205;28;20025;-70
2022/11/22 07:36:11;;;;;;;14.40;4.90;;;;;;;11.60;57.81;99183.25;5048693;28;20048;-70
2022/11/22 07:38:37;;;;;;;10.23;6.23;;;;;;;11.84;57.21;99186.66;5051488;28;20033;-70
2022/11/22 07:41:03;;;;;;;14.20;6.27;;;;;;;13.17;53.89;99193.09;5050007;28;20032;-70
2022/11/22 07:43:29;;;;;;;21.40;5.60;;;;;;;12.68;54.01;99181.31;5043981;28;20044;-69
2022/11/22 07:46:02;;;;;;;24.60;5.83;;;;;;;13.01;53.34;99188.59;5045033;28;20401;-69
2022/11/22 07:48:27;;;;;;;19.13;6.63;;;;;;;12.28;55.66;99192.72;5049815;28;20167;-69
2022/11/22 07:50:52;;;;;;;11.10;4.87;;;;;;;12.52;54.64;99196.03;5048732;28;20115;-69
2022/11/22 07:53:18;;;;;;;13.60;5.13;;;;;;;12.33;56.33;99199.44;5048739;28;20335;-69
2022/11/22 07:55:43;;;;;;;7.10;4.17;;;;;;;12.20;56.81;99200.91;5047671;28;20027;-69
2022/11/22 07:58:08;;;;;;;9.20;4.80;;;;;;;12.46;55.28;99201.53;5048717;28;20027;-70
2022/11/22 08:00:34;;;;;;;8.23;4.33;;;;;;;12.49;56.09;99204.03;5049416;28;20052;-69
2022/11/22 08:02:59;;;;;;;8.60;4.60;;;;;;;12.93;54.65;99197.69;5065414;28;20028;-69
2022/11/22 08:05:25;;;;;;;15.10;4.73;;;;;;;12.16;56.37;99201.97;5046952;28;20039;-69
2022/11/22 08:07:52;;;;;;;16.30;5.73;;;;;;;12.99;53.62;99208.75;5049520;28;20036;-70
2022/11/22 08:10:18;;;;;;;12.43;3.97;;;;;;;12.68;54.53;99204.91;5050918;28;20398;-69
2022/11/22 08:12:43;;;;;;;9.40;4.07;;;;;;;12.41;54.05;99216.63;5048090;28;20086;-69
2022/11/22 08:15:11;;;;;;;13.27;3.40;;;;;;;12.62;53.77;99210.41;5045000;28;20028;-68
2022/11/22 08:17:37;;;;;;;5.40;3.30;;;;;;;12.62;54.59;99215.66;5080237;28;20040;-68
2022/11/22 08:20:04;;;;;;;9.63;3.27;;;;;;;12.89;54.60;99212.75;5048119;28;20158;-68
2022/11/22 08:22:29;;;;;;;15.53;3.33;;;;;;;12.17;56.03;99216.72;5048745;28;20452;-67
2022/11/22 08:24:54;;;;;;;12.17;3.20;;;;;;;12.53;56.48;99221.34;5047683;28;20025;-67
2022/11/22 08:27:20;;;;;;;7.63;3.37;;;;;;;11.73;58.17;99219.41;5048937;28;20044;-67
2022/11/22 08:29:46;;;;;;;8.33;2.93;;;;;;;12.91;53.98;99231.88;5029913;28;20108;-67
2022/11/22 08:32:11;;;;;;;12.03;3.70;;;;;;;13.11;52.94;99230.97;5039616;28;20036;-68
2022/11/22 08:34:37;;;;;;;9.57;3.27;;;;;;;12.27;56.65;99239.03;5050740;28;20032;-67
2022/11/22 08:37:02;;;;;;;12.30;4.30;;;;;;;12.91;54.04;99237.09;5051856;28;20031;-68
2022/11/22 08:39:27;;;;;;;15.07;4.10;;;;;;;12.55;54.85;99240.44;5047974;28;20683;-68
2022/11/22 08:41:53;;;;;;;9.67;4.23;;;;;;;11.92;56.65;99250.94;5040443;28;20561;-67
2022/11/22 08:44:18;;;;;;;15.50;4.20;;;;;;;12.54;54.47;99250.09;5053606;28;20500;-68
2022/11/22 08:46:43;;;;;;;12.87;5.00;;;;;;;12.03;57.22;99260.09;5048982;28;20040;-67
2022/11/22 08:49:10;;;;;;;10.93;3.77;;;;;;;12.32;55.64;99250.16;5050055;28;20490;-67
2022/11/22 08:51:36;;;;;;;11.13;4.80;;;;;;;12.07;56.72;99255.56;5053411;28;20021;-68
2022/11/22 08:54:01;;;;;;;12.20;4.47;;;;;;;12.42;54.97;99244.50;5055271;28;20059;-67
2022/11/22 08:56:27;;;;;;;10.70;5.17;;;;;;;12.76;54.45;99253.53;5048638;28;20024;-68
2022/11/22 08:58:53;;;;;;;13.93;4.10;;;;;;;13.02;54.07;99255.00;5055323;28;20440;-67
2022/11/22 09:01:20;;;;;;;9.57;4.40;;;;;;;13.10;53.39;99262.53;5068207;28;20056;-68
2022/11/22 09:03:45;;;;;;;13.03;3.97;;;;;;;13.07;53.57;99259.09;5052092;28;20036;-67
2022/11/22 09:06:16;;;;;;;10.60;3.60;;;;;;;11.91;57.05;99268.41;5050466;28;20059;-68
2022/11/22 09:08:41;;;;;;;7.53;3.97;;;;;;;12.22;56.41;99264.56;5051766;28;20056;-68
2022/11/22 09:11:11;;;;;;;8.50;4.07;;;;;;;12.67;55.27;99260.88;5053993;28;20613;-67
2022/11/22 09:13:36;;;;;;;10.10;4.40;;;;;;;12.84;54.98;99257.50;5051508;28;20024;-67
2022/11/22 09:16:07;;;;;;;12.67;3.73;;;;;;;13.09;53.35;99255.56;5049949;28;20025;-67
2022/11/22 09:18:33;;;;;;;9.33;3.77;;;;;;;12.86;53.23;99254.84;5052415;28;20048;-68
2022/11/22 09:21:04;;;;;;;10.00;4.10;;;;;;;12.54;54.38;99270.19;5055374;28;20475;-68
2022/11/22 09:23:30;;;;;;;8.60;3.37;;;;;;;12.09;55.73;99265.97;5052366;28;20037;-68
2022/11/22 09:26:01;;;;;;;9.60;3.50;;;;;;;13.52;52.48;99269.38;5053008;28;20291;-68
2022/11/22 09:28:27;;;;;;;8.07;3.27;;;;;;;12.53;54.43;99258.03;5050452;28;20025;-67
2022/11/22 09:31:04;;;;;;;9.20;3.73;;;;;;;13.55;52.69;99263.97;5051377;28;20086;-68
2022/11/22 09:33:30;;;;;;;11.23;3.53;;;;;;;13.22;53.25;99257.56;5051643;28;20052;-67
2022/11/22 09:36:05;;;;;;;9.90;2.90;;;;;;;13.44;51.97;99268.88;5049987;28;20477;-68
2022/11/22 09:38:31;;;;;;;7.70;3.73;;;;;;;13.36;53.11;99263.97;5048350;28;20037;-67
2022/11/22 09:40:58;;;;;;;11.90;3.43;;;;;;;13.65;52.57;99273.09;5052098;28;20033;-68
2022/11/22 09:43:23;;;;;;;11.77;3.03;;;;;;;13.18;53.26;99270.91;5049668;28;20035;-67
2022/11/22 09:46:18;;;;;;;11.50;3.00;;;;;;;13.84;50.71;99274.84;5048875;28;20119;-68
2022/11/22 09:49:15;;;;;;;11.50;4.27;;;;;;;13.37;52.84;99282.28;5052231;28;20063;-68
2022/11/22 09:51:48;;;;;;;11.30;3.10;;;;;;;13.32;52.56;99281.59;5050941;28;20074;-67
2022/11/22 09:54:20;;;;;;;7.97;2.73;;;;;;;13.38;51.68;99278.75;5052038;28;20411;-67
2022/11/22 09:56:47;;;;;;;7.83;3.23;;;;;;;13.86;51.34;99275.63;5049357;28;20048;-67
2022/11/22 09:59:21;;;;;;;8.47;3.63;;;;;;;13.71;51.07;99280.69;5053045;28;20036;-68
2022/11/22 10:01:52;;;;;;;8.50;3.27;;;;;;;13.51;51.44;99271.13;5052744;28;20060;-68
2022/11/22 10:04:18;;;;;;;9.37;2.70;;;;;;;14.25;50.55;99279.84;5057631;28;20424;-68
2022/11/22 10:06:57;;;;;;;11.23;4.10;;;;;;;13.72;50.82;99282.41;5065394;28;20028;-68
2022/11/22 10:09:40;;;;;;;7.90;2.70;;;;;;;13.54;52.38;99270.97;5048186;28;20390;-67
2022/11/22 10:12:14;;;;;;;9.20;2.67;;;;;;;13.83;50.31;99267.91;5059053;28;20071;-68
2022/11/22 10:14:49;;;;;;;10.93;2.83;;;;;;;14.28;50.07;99268.34;5050617;28;20131;-68
2022/11/22 10:18:07;;;;;;;6.80;2.90;;;;;;;13.37;51.75;99271.78;5049563;28;20067;-67
2022/11/22 10:20:38;;;;;;;7.37;2.37;;;;;;;14.42;48.95;99277.25;5052269;28;20117;-67
2022/11/22 10:23:17;;;;;;;6.00;2.80;;;;;;;13.91;51.15;99277.09;5050595;28;20063;-67
2022/11/22 10:25:53;;;;;;;8.20;2.97;;;;;;;13.82;51.23;99272.31;5051491;28;20032;-67
2022/11/22 10:28:26;;;;;;;9.50;2.33;;;;;;;14.76;49.01;99269.41;5037157;28;20106;-67
2022/11/22 10:31:02;;;;;;;7.78;3.30;;;;;;;14.51;49.48;99275.06;5052408;28;20033;-68
2022/11/22 10:33:58;;;;;;;11.83;3.20;;;;;;;14.28;50.04;99263.94;5050512;28;20387;-67
2022/11/22 10:36:48;;;;;;;7.80;2.73;;;;;;;14.33;49.83;99261.06;5040531;28;20386;-67
2022/11/22 10:39:29;;;;;;;8.47;2.73;;;;;;;13.93;50.15;99268.28;5044175;28;20043;-67
2022/11/22 10:42:25;;;;;;;7.97;3.07;;;;;;;14.40;50.34;99268.56;5052452;28;20037;-67
2022/11/22 10:45:01;;;;;;;8.07;2.63;;;;;;;14.39;49.41;99253.72;5048465;28;20032;-67
2022/11/22 10:48:03;;;;;;;5.53;2.67;;;;;;;14.23;50.26;99266.81;5048081;28;20040;-67
2022/11/22 10:50:46;;;;;;;6.13;3.67;;;;;;;14.30;50.30;99251.56;5052858;28;20471;-67
2022/11/22 10:53:51;;;;;;;5.57;2.10;;;;;;;14.02;51.36;99250.31;5045463;28;20664;-67
2022/11/22 10:56:25;;;;;;;7.07;2.33;;;;;;;14.73;49.19;99249.38;5050075;28;20041;-67
2022/11/22 10:58:55;;;;;;;7.80;2.10;;;;;;;14.50;49.69;99254.97;5051044;28;20146;-67
2022/11/22 11:01:45;;;;;;;7.27;2.47;;;;;;;13.99;51.04;99247.84;5049783;28;20057;-67
2022/11/22 11:04:12;;;;;;;4.07;2.10;;;;;;;14.29;50.04;99234.09;5049832;28;20052;-67
2022/11/22 11:06:59;;;;;;;8.40;2.40;;;;;;;14.91;48.43;99225.69;5049856;28;20036;-67
2022/11/22 11:09:36;;;;;;;4.43;2.03;;;;;;;14.84;48.57;99237.47;5082836;28;20073;-67
2022/11/22 11:12:08;;;;;;;4.57;1.93;;;;;;;14.11;49.73;99224.50;5049798;28;20017;-67
2022/11/22 11:14:43;;;;;;;8.68;2.17;;;;;;;14.38;50.57;99231.00;5049904;28;20372;-67
2022/11/22 11:17:15;;;;;;;6.53;2.20;;;;;;;13.86;51.24;99241.47;5051512;28;20080;-67
2022/11/22 11:19:46;;;;;;;5.82;1.85;;;;;;;13.92;51.21;99238.56;5051556;28;20024;-67
2022/11/22 11:22:20;;;;;;;10.57;2.57;;;;;;;13.60;51.49;99240.97;5050213;28;20145;-67
2022/11/22 11:24:46;;;;;;;7.33;2.53;;;;;;;13.95;52.11;99245.44;5050147;28;20481;-67
2022/11/22 11:27:12;;;;;;;8.27;2.40;;;;;;;15.01;49.24;99240.03;5066795;28;20059;-67
2022/11/22 11:29:39;;;;;;;12.37;2.43;;;;;;;14.72;50.09;99245.03;5050478;28;20082;-67
2022/11/22 11:32:16;;;;;;;12.30;2.57;;;;;;;14.72;49.59;99237.16;5049833;28;20028;-67
2022/11/22 11:34:54;;;;;;;5.33;2.23;;;;;;;14.31;51.12;99237.47;5040782;28;20036;-67
2022/11/22 11:37:35;;;;;;;7.43;2.67;;;;;;;14.89;49.08;99238.03;5049224;28;20020;-67
2022/11/22 11:40:01;;;;;;;3.87;2.07;;;;;;;14.76;49.72;99243.97;5050997;28;20029;-67
2022/11/22 11:42:34;;;;;;;7.73;1.97;;;;;;;14.50;49.88;99239.19;5047307;28;20449;-67